createdAt,value
2023-05-18T00:01:05.569Z,1.52
2023-05-18T00:03:33.606Z,1.37
2023-05-18T00:06:04.615Z,1.77
2023-05-18T00:08:33.715Z,1.58
2023-05-18T00:11:01.687Z,1.63
2023-05-18T00:13:28.631Z,1.75
2023-05-18T00:15:55.632Z,1.30
2023-05-18T00:18:23.844Z,1.58
2023-05-18T00:20:59.007Z,1.60
2023-05-18T00:23:33.228Z,1.50
2023-05-18T00:26:01.319Z,1.73
2023-05-18T00:28:29.073Z,1.80
2023-05-18T00:30:56.520Z,1.33
2023-05-18T00:33:23.440Z,1.88
2023-05-18T00:35:50.030Z,1.83
2023-05-18T00:38:16.652Z,1.83
2023-05-18T00:40:43.857Z,1.40
2023-05-18T00:43:11.767Z,1.80
2023-05-18T00:45:38.644Z,1.80
2023-05-18T00:48:05.852Z,1.83
2023-05-18T00:50:32.674Z,2.10
2023-05-18T00:52:59.642Z,1.50
2023-05-18T00:55:28.483Z,1.55
2023-05-18T00:57:56.884Z,1.92
2023-05-18T01:00:23.933Z,1.52
2023-05-18T01:02:51.148Z,1.55
2023-05-18T01:05:18.118Z,1.87
2023-05-18T01:07:44.772Z,1.83
2023-05-18T01:10:13.863Z,1.70
2023-05-18T01:12:56.175Z,1.92
2023-05-18T01:15:45.047Z,1.90
2023-05-18T01:18:39.920Z,1.70
2023-05-18T01:21:28.956Z,1.85
2023-05-18T01:24:16.309Z,1.90
2023-05-18T01:26:45.237Z,2.00
2023-05-18T01:29:14.086Z,1.98
2023-05-18T01:31:40.595Z,2.20
2023-05-18T01:34:07.140Z,1.65
2023-05-18T01:36:33.696Z,1.75
2023-05-18T01:39:01.873Z,1.92
2023-05-18T01:41:29.743Z,1.77
2023-05-18T01:44:15.812Z,1.63
2023-05-18T01:47:02.558Z,2.10
2023-05-18T01:49:51.075Z,1.98
2023-05-18T01:53:04.213Z,2.00
2023-05-18T01:55:32.197Z,1.60
2023-05-18T01:58:00.610Z,1.73
2023-05-18T02:00:27.866Z,1.75
2023-05-18T02:02:54.506Z,1.80
2023-05-18T02:05:21.350Z,1.85
2023-05-18T02:07:48.288Z,1.58
2023-05-18T02:10:15.399Z,2.07
2023-05-18T02:12:42.253Z,1.95
2023-05-18T02:15:09.656Z,1.95
2023-05-18T02:17:39.423Z,1.65
2023-05-18T02:20:07.389Z,1.88
2023-05-18T02:22:34.877Z,2.10
2023-05-18T02:25:02.874Z,1.88
2023-05-18T02:27:29.644Z,1.83
2023-05-18T02:29:56.854Z,2.47
2023-05-18T02:32:23.868Z,2.15
2023-05-18T02:34:53.872Z,1.83
2023-05-18T02:37:23.052Z,2.30
2023-05-18T02:39:50.231Z,2.17
2023-05-18T02:42:16.889Z,1.80
2023-05-18T02:44:43.866Z,1.90
2023-05-18T02:47:13.699Z,2.07
2023-05-18T02:49:40.453Z,1.67
2023-05-18T02:52:07.093Z,1.98
2023-05-18T02:54:33.720Z,2.30
2023-05-18T02:57:01.799Z,2.50
2023-05-18T02:59:40.410Z,2.17
2023-05-18T03:02:07.055Z,2.42
2023-05-18T03:04:33.818Z,1.88
2023-05-18T03:07:02.805Z,2.05
2023-05-18T03:09:29.935Z,1.52
2023-05-18T03:11:57.113Z,1.80
2023-05-18T03:14:23.948Z,2.42
2023-05-18T03:16:54.239Z,2.60
2023-05-18T03:19:22.996Z,1.48
2023-05-18T03:21:49.729Z,2.30
2023-05-18T03:24:16.826Z,1.87
2023-05-18T03:26:47.483Z,2.17
2023-05-18T03:29:14.120Z,2.40
2023-05-18T03:31:41.581Z,2.80
2023-05-18T03:34:09.525Z,1.95
2023-05-18T03:36:36.406Z,1.70
2023-05-18T03:39:04.186Z,2.00
2023-05-18T03:41:31.763Z,2.33
2023-05-18T03:43:58.392Z,1.98
2023-05-18T03:46:25.278Z,1.83
2023-05-18T03:48:53.873Z,2.00
2023-05-18T03:51:24.665Z,2.03
2023-05-18T03:53:51.287Z,1.90
2023-05-18T03:56:17.861Z,2.35
2023-05-18T03:58:45.589Z,1.90
2023-05-18T04:01:12.401Z,2.37
2023-05-18T04:03:40.742Z,1.90
2023-05-18T04:06:09.799Z,1.92
2023-05-18T04:08:37.207Z,2.05
2023-05-18T04:11:06.875Z,2.85
2023-05-18T04:13:33.764Z,2.00
2023-05-18T04:16:00.351Z,2.30
2023-05-18T04:18:30.138Z,2.28
2023-05-18T04:20:56.827Z,2.75
2023-05-18T04:23:24.004Z,2.03
2023-05-18T04:25:50.728Z,2.23
2023-05-18T04:28:17.922Z,2.00
2023-05-18T04:30:46.022Z,2.28
2023-05-18T04:33:13.411Z,1.67
2023-05-18T04:35:40.025Z,2.40
2023-05-18T04:38:06.835Z,2.10
2023-05-18T04:40:38.089Z,2.05
2023-05-18T04:43:05.670Z,2.47
2023-05-18T04:45:34.288Z,2.55
2023-05-18T04:48:02.066Z,1.98
2023-05-18T04:50:28.934Z,1.90
2023-05-18T04:52:57.937Z,2.38
2023-05-18T04:55:27.403Z,2.22
2023-05-18T04:57:57.423Z,1.92
2023-05-18T05:00:25.924Z,1.83
2023-05-18T05:02:53.437Z,1.93
2023-05-18T05:05:20.951Z,1.90
2023-05-18T05:07:49.865Z,1.50
2023-05-18T05:10:16.555Z,2.33
2023-05-18T05:12:43.181Z,1.77
2023-05-18T05:15:10.977Z,2.30
2023-05-18T05:17:37.940Z,1.60
2023-05-18T05:20:08.057Z,1.80
2023-05-18T05:22:35.216Z,2.28
2023-05-18T05:25:07.612Z,2.33
2023-05-18T05:27:34.442Z,1.40
2023-05-18T05:30:02.151Z,1.50
2023-05-18T05:32:30.130Z,1.52
2023-05-18T05:34:56.821Z,1.55
2023-05-18T05:37:24.003Z,2.15
2023-05-18T05:39:51.095Z,2.03
2023-05-18T05:42:18.535Z,1.58
2023-05-18T05:44:46.407Z,1.10
2023-05-18T05:47:13.117Z,1.67
2023-05-18T05:49:40.994Z,1.25
2023-05-18T05:52:07.673Z,1.70
2023-05-18T05:54:36.031Z,1.67
2023-05-18T05:57:03.873Z,1.95
2023-05-18T05:59:30.625Z,1.80
2023-05-18T06:01:57.929Z,1.70
2023-05-18T06:04:25.918Z,1.57
2023-05-18T06:06:52.666Z,1.33
2023-05-18T06:09:19.573Z,1.75
2023-05-18T06:11:46.197Z,1.95
2023-05-18T06:14:13.174Z,2.38
2023-05-18T06:16:40.952Z,1.43
2023-05-18T06:19:09.008Z,1.30
2023-05-18T06:21:35.841Z,1.70
2023-05-18T06:24:05.080Z,1.30
2023-05-18T06:26:46.298Z,1.15
2023-05-18T06:29:37.260Z,1.60
2023-05-18T06:32:14.797Z,1.48
2023-05-18T06:34:52.736Z,1.42
2023-05-18T06:37:21.093Z,1.40
2023-05-18T06:39:47.733Z,1.13
2023-05-18T06:42:14.247Z,1.40
2023-05-18T06:44:50.507Z,1.45
2023-05-18T06:47:18.805Z,2.00
2023-05-18T06:49:45.406Z,1.70
2023-05-18T06:52:13.620Z,1.05
2023-05-18T06:54:42.151Z,1.17
2023-05-18T06:57:08.850Z,1.30
2023-05-18T06:59:35.656Z,1.15
2023-05-18T07:02:03.593Z,0.90
2023-05-18T07:04:31.945Z,0.85
2023-05-18T07:06:58.426Z,1.23
2023-05-18T07:09:25.555Z,1.30
2023-05-18T07:11:52.174Z,1.23
2023-05-18T07:14:18.857Z,1.30
2023-05-18T07:16:47.241Z,1.30
2023-05-18T07:19:14.617Z,0.97
2023-05-18T07:21:41.413Z,1.08
2023-05-18T07:24:08.054Z,1.15
2023-05-18T07:26:34.618Z,1.20
2023-05-18T07:29:01.162Z,1.58
2023-05-18T07:31:27.980Z,1.13
2023-05-18T07:33:54.619Z,1.25
2023-05-18T07:36:22.050Z,0.90
2023-05-18T07:38:54.073Z,0.90
2023-05-18T07:41:22.742Z,1.42
2023-05-18T07:43:52.094Z,1.40
2023-05-18T07:46:19.171Z,1.55
2023-05-18T07:48:46.285Z,1.27
2023-05-18T07:51:12.903Z,1.50
2023-05-18T07:53:40.897Z,1.50
2023-05-18T07:56:08.634Z,1.40
2023-05-18T07:58:36.388Z,1.45
2023-05-18T08:01:03.382Z,1.15
2023-05-18T08:03:30.108Z,1.35
2023-05-18T08:05:56.814Z,1.30
2023-05-18T08:08:24.424Z,1.10
2023-05-18T08:10:52.156Z,0.98
2023-05-18T08:13:20.289Z,1.48
2023-05-18T08:15:53.234Z,0.90
2023-05-18T08:18:23.087Z,1.35
2023-05-18T08:20:49.653Z,0.80
2023-05-18T08:23:16.185Z,1.80
2023-05-18T08:25:42.723Z,1.58
2023-05-18T08:28:09.275Z,1.30
2023-05-18T08:30:35.811Z,1.27
2023-05-18T08:33:03.220Z,0.80
2023-05-18T08:35:30.078Z,1.00
2023-05-18T08:37:57.618Z,1.83
2023-05-18T08:40:32.617Z,1.00
2023-05-18T08:43:02.998Z,1.67
2023-05-18T08:45:38.544Z,1.23
2023-05-18T08:48:06.158Z,1.40
2023-05-18T08:50:33.254Z,0.95
2023-05-18T08:53:05.929Z,0.98
2023-05-18T08:55:36.832Z,0.80
2023-05-18T08:58:07.354Z,1.27
2023-05-18T09:00:34.703Z,1.30
2023-05-18T09:03:04.960Z,1.27
2023-05-18T09:05:32.294Z,1.17
2023-05-18T09:07:59.503Z,1.17
2023-05-18T09:10:26.384Z,0.80
2023-05-18T09:12:55.671Z,1.38
2023-05-18T09:15:23.093Z,1.38
2023-05-18T09:17:49.779Z,1.10
2023-05-18T09:20:16.883Z,1.20
2023-05-18T09:22:43.689Z,1.17
2023-05-18T09:25:10.871Z,1.60
2023-05-18T09:27:38.374Z,1.45
2023-05-18T09:30:09.973Z,1.02
2023-05-18T09:32:36.880Z,1.52
2023-05-18T09:35:07.916Z,1.30
2023-05-18T09:37:35.041Z,1.63
2023-05-18T09:40:07.962Z,1.23
2023-05-18T09:42:42.690Z,1.75
2023-05-18T09:45:28.491Z,1.20
2023-05-18T09:47:55.256Z,0.90
2023-05-18T09:50:23.246Z,1.10
2023-05-18T09:52:50.372Z,1.65
2023-05-18T09:55:18.400Z,1.55
2023-05-18T09:57:46.836Z,1.50
2023-05-18T10:00:15.655Z,1.70
2023-05-18T10:02:48.301Z,1.45
2023-05-18T10:05:27.368Z,1.20
2023-05-18T10:07:55.192Z,1.50
2023-05-18T10:10:25.057Z,1.40
2023-05-18T10:12:52.545Z,1.60
2023-05-18T10:15:21.893Z,2.38
2023-05-18T10:17:50.946Z,1.40
2023-05-18T10:20:19.603Z,1.33
2023-05-18T10:22:48.577Z,1.10
2023-05-18T10:25:19.132Z,1.30
2023-05-18T10:27:47.676Z,1.40
2023-05-18T10:30:14.918Z,1.40
2023-05-18T10:32:43.416Z,1.35
2023-05-18T10:35:10.865Z,2.15
2023-05-18T10:37:40.477Z,1.60
2023-05-18T10:40:08.701Z,1.45
2023-05-18T10:42:35.967Z,1.20
2023-05-18T10:45:03.116Z,1.70
2023-05-18T10:47:30.010Z,1.85
2023-05-18T10:49:58.999Z,1.63
2023-05-18T10:52:31.559Z,1.40
2023-05-18T10:55:00.525Z,1.80
2023-05-18T10:57:36.964Z,1.17
2023-05-18T11:00:07.696Z,1.27
2023-05-18T11:02:35.183Z,1.60
2023-05-18T11:05:06.323Z,1.80
2023-05-18T11:07:34.204Z,1.35
2023-05-18T11:10:09.113Z,1.05
2023-05-18T11:12:38.600Z,1.73
2023-05-18T11:15:06.008Z,1.43
2023-05-18T11:17:32.662Z,1.80
2023-05-18T11:20:05.835Z,1.42
2023-05-18T11:22:47.750Z,1.48
2023-05-18T11:25:32.751Z,1.40
2023-05-18T11:28:05.502Z,1.40
2023-05-18T11:30:36.332Z,1.55
2023-05-18T11:33:09.370Z,1.52
2023-05-18T11:35:58.492Z,2.28
2023-05-18T11:39:02.475Z,1.65
2023-05-18T11:41:33.374Z,1.87
2023-05-18T11:44:15.148Z,1.92
2023-05-18T11:47:01.065Z,1.67
2023-05-18T11:49:29.235Z,1.67
2023-05-18T11:52:02.756Z,1.15
2023-05-18T11:54:34.102Z,1.97
2023-05-18T11:57:00.717Z,1.40
2023-05-18T11:59:36.517Z,1.75
2023-05-18T12:02:04.175Z,1.70
2023-05-18T12:04:33.398Z,1.77
2023-05-18T12:07:05.300Z,1.50
2023-05-18T12:09:32.313Z,1.27
2023-05-18T12:11:58.885Z,1.30
2023-05-18T12:14:26.666Z,1.30
2023-05-18T12:16:53.857Z,1.65
2023-05-18T12:19:22.161Z,1.80
2023-05-18T12:21:48.771Z,2.10
2023-05-18T12:24:15.495Z,1.90
2023-05-18T12:26:42.108Z,1.48
2023-05-18T12:29:10.353Z,1.77
2023-05-18T12:31:40.374Z,1.70
2023-05-18T12:34:09.325Z,2.05
2023-05-18T12:36:40.965Z,1.60
2023-05-18T12:39:07.932Z,1.80
2023-05-18T12:41:34.476Z,1.52
2023-05-18T12:44:01.036Z,1.80
2023-05-18T12:46:27.897Z,2.20
2023-05-18T12:49:01.395Z,1.98
2023-05-18T12:51:38.165Z,1.42
2023-05-18T12:54:06.378Z,1.80
2023-05-18T12:57:02.605Z,1.50
2023-05-18T12:59:29.352Z,1.98
2023-05-18T13:01:56.721Z,1.73
2023-05-18T13:04:23.452Z,1.55
2023-05-18T13:06:50.130Z,1.80
2023-05-18T13:09:17.283Z,1.83
2023-05-18T13:12:00.240Z,2.00
2023-05-18T13:14:38.359Z,1.63
2023-05-18T13:17:04.981Z,1.45
2023-05-18T13:19:34.938Z,1.58
2023-05-18T13:22:02.382Z,1.60
2023-05-18T13:24:29.292Z,2.10
2023-05-18T13:26:55.850Z,1.98
2023-05-18T13:29:22.395Z,2.45
2023-05-18T13:31:49.039Z,2.15
2023-05-18T13:34:15.633Z,2.20
2023-05-18T13:36:42.292Z,1.80
2023-05-18T13:39:09.655Z,2.05
2023-05-18T13:41:36.532Z,1.70
2023-05-18T13:44:03.663Z,1.75
2023-05-18T13:46:30.661Z,1.40
2023-05-18T13:48:57.278Z,1.67
2023-05-18T13:51:23.875Z,2.25
2023-05-18T13:53:50.473Z,1.80
2023-05-18T13:56:17.045Z,1.70
2023-05-18T13:58:43.652Z,1.80
2023-05-18T14:01:13.408Z,1.70
2023-05-18T14:03:40.679Z,1.70
2023-05-18T14:06:07.558Z,2.00
2023-05-18T14:08:34.367Z,1.92
2023-05-18T14:11:00.925Z,1.67
2023-05-18T14:13:27.686Z,2.08
2023-05-18T14:15:54.223Z,2.00
2023-05-18T14:18:20.820Z,2.13
2023-05-18T14:20:48.471Z,1.80
2023-05-18T14:23:15.055Z,1.77
2023-05-18T14:25:43.556Z,1.90
2023-05-18T14:28:10.445Z,1.73
2023-05-18T14:30:37.064Z,1.85
2023-05-18T14:33:03.914Z,2.00
2023-05-18T14:35:30.543Z,1.90
2023-05-18T14:37:57.101Z,2.20
2023-05-18T14:40:23.656Z,1.77
2023-05-18T14:42:52.250Z,2.13
2023-05-18T14:45:20.554Z,1.83
2023-05-18T14:47:47.093Z,1.57
2023-05-18T14:50:13.664Z,1.63
2023-05-18T14:52:40.339Z,2.28
2023-05-18T14:55:07.195Z,2.28
2023-05-18T14:57:33.731Z,1.98
2023-05-18T15:00:00.682Z,2.27
2023-05-18T15:02:29.036Z,1.95
2023-05-18T15:04:55.766Z,2.00
2023-05-18T15:07:22.405Z,2.20
2023-05-18T15:09:48.960Z,1.88
2023-05-18T15:12:17.071Z,2.00
2023-05-18T15:14:43.747Z,2.10
2023-05-18T15:17:10.476Z,2.40
2023-05-18T15:19:37.035Z,1.88
2023-05-18T15:22:03.707Z,1.60
2023-05-18T15:24:30.198Z,2.20
2023-05-18T15:26:56.914Z,2.50
2023-05-18T15:29:23.511Z,2.58
2023-05-18T15:31:51.243Z,2.22
2023-05-18T15:34:17.991Z,2.28
2023-05-18T15:36:44.551Z,2.00
2023-05-18T15:39:11.438Z,2.78
2023-05-18T15:41:38.103Z,2.40
2023-05-18T15:44:04.811Z,2.05
2023-05-18T15:46:33.134Z,2.53
2023-05-18T15:48:59.864Z,2.60
2023-05-18T15:51:26.445Z,2.50
2023-05-18T15:53:53.349Z,2.30
2023-05-18T15:56:19.905Z,2.30
2023-05-18T15:58:46.567Z,2.00
2023-05-18T16:01:13.309Z,2.37
2023-05-18T16:03:40.218Z,2.40
2023-05-18T16:06:07.127Z,2.20
2023-05-18T16:08:33.680Z,2.20
2023-05-18T16:11:02.277Z,2.33
2023-05-18T16:13:28.910Z,2.70
2023-05-18T16:15:55.640Z,2.38
2023-05-18T16:18:22.166Z,2.42
2023-05-18T16:20:48.750Z,2.35
2023-05-18T16:23:15.480Z,2.30
2023-05-18T16:25:42.027Z,2.40
2023-05-18T16:28:08.581Z,2.90
2023-05-18T16:30:35.099Z,2.53
2023-05-18T16:33:02.344Z,2.67
2023-05-18T16:35:31.016Z,2.17
2023-05-18T16:37:57.794Z,2.03
2023-05-18T16:40:24.361Z,2.50
2023-05-18T16:42:50.890Z,3.35
2023-05-18T16:45:17.488Z,2.50
2023-05-18T16:47:44.647Z,2.60
2023-05-18T16:50:11.356Z,2.10
2023-05-18T16:52:37.887Z,2.00
2023-05-18T16:55:04.693Z,1.95
2023-05-18T16:57:33.688Z,1.85
2023-05-18T17:00:01.173Z,2.20
2023-05-18T17:02:53.335Z,2.17
2023-05-18T17:05:23.005Z,2.15
2023-05-18T17:07:51.262Z,2.22
2023-05-18T17:10:18.114Z,2.40
2023-05-18T17:12:44.765Z,2.70
2023-05-18T17:15:12.818Z,2.40
2023-05-18T17:17:42.006Z,1.60
2023-05-18T17:20:10.782Z,2.30
2023-05-18T17:22:38.124Z,2.28
2023-05-18T17:25:05.435Z,2.22
2023-05-18T17:27:32.235Z,2.07
2023-05-18T17:29:58.851Z,1.88
2023-05-18T17:32:25.928Z,2.10
2023-05-18T17:34:52.535Z,1.70
2023-05-18T17:37:19.832Z,2.17
2023-05-18T17:39:46.326Z,1.97
2023-05-18T17:42:13.542Z,2.00
2023-05-18T17:44:40.264Z,2.00
2023-05-18T17:47:07.014Z,1.90
2023-05-18T17:49:34.125Z,1.75
2023-05-18T17:52:00.658Z,1.80
2023-05-18T17:54:27.620Z,1.60
2023-05-18T17:56:56.541Z,1.63
2023-05-18T17:59:23.066Z,2.00
2023-05-18T18:01:49.899Z,2.25
2023-05-18T18:04:16.464Z,2.33
2023-05-18T18:06:43.224Z,2.30
2023-05-18T18:09:09.801Z,2.25
2023-05-18T18:11:36.401Z,2.10
2023-05-18T18:14:02.996Z,1.85
2023-05-18T18:16:29.638Z,1.80
2023-05-18T18:18:56.721Z,1.80
2023-05-18T18:21:23.378Z,1.88
2023-05-18T18:23:49.918Z,1.73
2023-05-18T18:26:16.483Z,1.90
2023-05-18T18:28:43.000Z,1.70
2023-05-18T18:31:09.666Z,1.92
2023-05-18T18:33:36.404Z,2.05
2023-05-18T18:36:05.593Z,2.03
2023-05-18T18:38:33.839Z,2.00
2023-05-18T18:41:04.279Z,2.00
2023-05-18T18:43:33.443Z,2.25
2023-05-18T18:46:00.186Z,1.80
2023-05-18T18:48:27.292Z,1.65
2023-05-18T18:50:54.035Z,2.08
2023-05-18T18:53:20.532Z,2.07
2023-05-18T18:55:47.176Z,2.85
2023-05-18T18:58:13.935Z,3.10
2023-05-18T19:00:41.685Z,3.10
2023-05-18T19:03:09.895Z,3.10
2023-05-18T19:05:36.825Z,2.80
2023-05-18T19:08:03.377Z,3.17
2023-05-18T19:10:31.322Z,2.92
2023-05-18T19:12:59.941Z,2.28
2023-05-18T19:15:26.553Z,2.10
2023-05-18T19:17:53.826Z,1.80
2023-05-18T19:20:20.920Z,2.00
2023-05-18T19:22:47.571Z,2.17
2023-05-18T19:25:14.189Z,1.67
2023-05-18T19:27:40.714Z,2.00
2023-05-18T19:30:07.823Z,1.77
2023-05-18T19:32:34.430Z,2.00
2023-05-18T19:35:00.958Z,1.70
2023-05-18T19:37:27.539Z,1.77
2023-05-18T19:39:54.296Z,1.80
2023-05-18T19:42:20.771Z,1.70
2023-05-18T19:44:47.729Z,1.90
2023-05-18T19:47:14.334Z,1.40
2023-05-18T19:49:40.944Z,1.92
2023-05-18T19:52:09.418Z,1.70
2023-05-18T19:54:37.035Z,1.93
2023-05-18T19:57:03.741Z,1.33
2023-05-18T19:59:30.329Z,1.60
2023-05-18T20:01:59.767Z,1.55
2023-05-18T20:04:28.458Z,1.33
2023-05-18T20:06:59.393Z,1.50
2023-05-18T20:09:26.534Z,1.80
2023-05-18T20:11:54.312Z,1.30
2023-05-18T20:14:21.185Z,1.83
2023-05-18T20:16:47.903Z,1.58
2023-05-18T20:19:17.795Z,1.73
2023-05-18T20:21:47.628Z,1.52
2023-05-18T20:24:14.276Z,1.70
2023-05-18T20:26:40.901Z,1.45
2023-05-18T20:29:07.553Z,1.70
2023-05-18T20:31:34.178Z,1.20
2023-05-18T20:34:00.829Z,2.13
2023-05-18T20:36:29.436Z,1.90
2023-05-18T20:38:56.029Z,2.00
2023-05-18T20:41:23.217Z,1.60
2023-05-18T20:43:51.092Z,1.60
2023-05-18T20:46:24.766Z,1.92
2023-05-18T20:48:57.483Z,1.40
2023-05-18T20:51:24.702Z,1.30
2023-05-18T20:53:51.751Z,1.77
2023-05-18T20:56:18.857Z,1.60
2023-05-18T20:58:48.673Z,1.55
2023-05-18T21:01:16.697Z,1.50
2023-05-18T21:03:44.981Z,1.55
2023-05-18T21:06:12.989Z,1.60
2023-05-18T21:08:40.565Z,1.83
2023-05-18T21:11:07.145Z,1.90
2023-05-18T21:13:36.655Z,1.92
2023-05-18T21:16:06.456Z,1.92
2023-05-18T21:18:34.351Z,1.90
2023-05-18T21:21:02.461Z,1.33
2023-05-18T21:23:29.931Z,1.95
2023-05-18T21:25:57.034Z,1.88
2023-05-18T21:28:25.002Z,1.92
2023-05-18T21:30:52.265Z,1.90
2023-05-18T21:33:19.169Z,2.10
2023-05-18T21:35:45.722Z,2.33
2023-05-18T21:38:12.284Z,1.52
2023-05-18T21:40:38.937Z,2.72
2023-05-18T21:43:05.598Z,1.67
2023-05-18T21:45:32.150Z,1.90
2023-05-18T21:47:58.797Z,1.75
2023-05-18T21:50:25.436Z,1.90
2023-05-18T21:52:52.093Z,1.95
2023-05-18T21:55:18.640Z,1.33
2023-05-18T21:57:45.349Z,2.10
2023-05-18T22:00:13.834Z,2.05
2023-05-18T22:02:40.838Z,2.15
2023-05-18T22:05:08.854Z,2.00
2023-05-18T22:07:35.619Z,2.03
2023-05-18T22:10:02.629Z,2.27
2023-05-18T22:12:29.195Z,2.05
2023-05-18T22:14:55.819Z,1.88
2023-05-18T22:17:22.415Z,2.72
2023-05-18T22:19:49.061Z,1.90
2023-05-18T22:22:29.181Z,2.50
2023-05-18T22:24:56.594Z,2.20
2023-05-18T22:27:23.184Z,2.65
2023-05-18T22:29:49.717Z,2.58
2023-05-18T22:32:17.859Z,2.63
2023-05-18T22:34:44.534Z,2.40
2023-05-18T22:37:11.071Z,2.58
2023-05-18T22:39:37.716Z,1.98
2023-05-18T22:42:04.363Z,2.30
2023-05-18T22:44:31.236Z,2.15
2023-05-18T22:46:57.899Z,2.60
2023-05-18T22:49:24.602Z,2.35
2023-05-18T22:51:53.219Z,2.65
2023-05-18T22:54:19.800Z,2.60
2023-05-18T22:56:46.427Z,2.38
2023-05-18T22:59:13.243Z,2.30
2023-05-18T23:01:39.859Z,2.50
2023-05-18T23:04:07.037Z,2.55
2023-05-18T23:06:34.513Z,1.90
2023-05-18T23:09:01.134Z,2.40
2023-05-18T23:11:28.635Z,2.60
2023-05-18T23:13:55.332Z,2.15
2023-05-18T23:16:24.188Z,2.60
2023-05-18T23:18:53.614Z,2.28
2023-05-18T23:21:21.754Z,2.55
2023-05-18T23:23:48.415Z,2.97
2023-05-18T23:26:15.033Z,2.28
2023-05-18T23:28:41.628Z,2.35
2023-05-18T23:31:08.211Z,1.98
2023-05-18T23:33:34.983Z,2.63
2023-05-18T23:36:03.093Z,2.33
2023-05-18T23:38:35.072Z,2.80
2023-05-18T23:41:04.219Z,2.55
2023-05-18T23:43:30.994Z,2.67
2023-05-18T23:45:59.711Z,3.05
2023-05-18T23:48:27.622Z,2.87
2023-05-18T23:50:59.899Z,2.70
2023-05-18T23:53:28.336Z,2.75
2023-05-18T23:55:57.294Z,2.50
2023-05-18T23:58:27.983Z,3.00
